x

Onslow Bay Outer, Nc (41036) Wave Buoy

11:50pm - Sat 30th Aug 2014 All times are EDT. -4 hours from GMT.

  • Sig Wave height 2.3ft
  • Swell Direction
  • Peak Period 8s
  • Average Period 5s
  • Wind
    11mph, 13mph gusts
  • Sea Temp 83°f
  • Air Temp 82°f
  • Sea Pressure 1022.2mb
  • Onslow Bay Outer, Nc
  • Onslow Bay Outer, Nc

More Historic Weather Station data

Upgrade to MSW Pro to gain access to the past 30 days of data for over 8000 Wavebouys and Weather Stations around the globe.

Join Pro

Comparision Forecast

View Surf forecast
   
Sat 08/30 11:50pm 2.5ft 8s 5s 11 13 mph 1022.2mb 83f 82f
11:20pm  -   -   -  9 11 mph 1022.5mb 83f 82f
10:50pm 2.5ft 8s 5s 11 13 mph 1022.3mb 83f 82f
10:20pm  -   -   -  9 11 mph 1022.2mb 83f 82f
9:50pm 2.5ft 8s 5s 11 13 mph 1021.8mb 83f 82f
9:20pm  -   -   -  11 13 mph 1021.6mb 83f 82f
8:50pm 2.5ft 8s 5s 11 13 mph 1021.2mb 83f 82f
8:20pm  -   -   -  9 11 mph 1021.3mb 83f 82f
7:50pm 2.5ft 8s 5s 9 11 mph 1021mb 83f 82f
7:20pm  -   -   -  9 11 mph 1021mb 83f 82f
6:50pm 2.5ft 8s 5s 9 11 mph 1021.1mb 83f 82f
6:20pm  -   -   -  9
mph
1021.4mb 83f 82f
5:50pm 3ft 8s 6s 7 9 mph 1021.4mb 83f 82f
5:20pm  -   -   -  7 9 mph 1021.4mb 83f 82f
4:50pm 2.5ft 8s 5s 9 11 mph 1021.5mb 83f 82f
4:20pm  -   -   -  9 11 mph 1021.6mb 83f 82f
3:50pm 2.5ft 8s 6s 11 13 mph 1021.7mb 83f 81f
3:20pm  -   -   -  11 13 mph 1021.8mb 83f 81f
2:50pm 2.5ft 8s 6s 9 11 mph 1022.4mb 83f 82f
2:20pm  -   -   -  7 9 mph 1022.9mb 83f 81f
1:50pm 2.5ft 8s 6s 7 9 mph 1023.1mb 83f 81f
1:20pm  -   -   -  9
mph
1023.2mb 83f 80f
12:50pm 2.5ft 7s 6s 9 11 mph 1023.2mb 83f 80f
12:20pm  -   -   -  7 9 mph 1023.5mb 83f 81f
11:50am 2.5ft 8s 6s 7
mph
1023.6mb 83f 80f
11:20am  -   -   -  7 9 mph 1023.6mb 83f 80f
10:50am 2.5ft 9s 6s 7 9 mph 1023.5mb 83f 80f
10:20am  -   -   -  7 9 mph 1023.6mb 82f 81f
9:50am 2.5ft 8s 6s 7 9 mph 1023.4mb 82f 80f
9:20am  -   -   -  7 9 mph 1023.2mb 82f 80f
8:50am 3ft 7s 6s 7 9 mph 1023.1mb 82f 81f
8:20am  -   -   -  2
mph
1023.1mb 82f 82f
7:50am 3ft 7s 6s  -  mph 1023.1mb 82f 82f
7:20am  -   -   -  2
mph
1023mb 82f 82f
6:50am 3.5ft 8s 6s 4
mph
1022.4mb 82f 82f
6:20am  -   -   -  4
mph
1022.2mb 82f 82f
5:50am 3ft 8s 6s 7 9 mph 1021.9mb 82f 82f
5:20am  -   -   -  7
mph
1021.6mb 82f 82f
4:50am 3.5ft 7s 6s 7 9 mph 1021.6mb 82f 82f
4:20am  -   -   -  7 9 mph 1021.3mb 82f 82f
3:50am 3ft 8s 6s 9
mph
1021.5mb 82f 82f
3:20am  -   -   -  9 11 mph 1021.6mb 82f 82f
2:50am 2.5ft 8s 6s 11 13 mph 1021.4mb 82f 82f
2:20am  -   -   -  11 13 mph 1021.4mb 82f 82f
1:50am 2.5ft 8s 7s 4 11 mph 1021.5mb 82f 82f
1:20am  -   -   -  2
mph
1021.7mb 82f 82f
12:50am 2.5ft 8s 7s 4
mph
1021.7mb 82f 82f
12:20am  -   -   -  4 7 mph 1021.7mb 82f 82f
Fri 08/29 11:50pm 2.5ft 8s 6s 7
mph
1021.6mb 82f 82f
11:20pm  -   -   -  7 9 mph 1021.6mb 82f 82f
10:50pm 2.5ft 8s 6s 9
mph
1021.3mb 82f 82f
10:20pm  -   -   -  9 11 mph 1021.1mb 82f 82f
9:50pm 2.5ft 8s 6s 9 11 mph 1020.9mb 82f 82f
9:20pm  -   -   -  11
mph
1020.8mb 83f 82f
8:50pm 2.5ft 8s 6s 9 11 mph 1020.4mb 83f 82f
8:20pm  -   -   -  11
mph
1020mb 83f 83f
7:50pm 2.5ft 8s 7s 9 11 mph 1019.7mb 83f 82f
6:50pm 2.5ft 8s 7s 7 9 mph 1019.6mb 83f 82f
6:20pm  -   -   -  7 9 mph 1019.7mb 84f 82f
5:50pm 2.5ft 8s 6s 7
mph
1019.7mb 83f 82f
5:20pm  -   -   -  7
mph
1019.6mb 84f 82f
4:50pm 2.5ft 8s 7s 4 7 mph 1019.4mb 84f 82f
4:20pm  -   -   -  4 7 mph 1019.3mb 84f 82f
3:50pm 2.5ft 9s 6s 4 7 mph 1019.4mb 84f 82f
3:20pm  -   -   -  4 7 mph 1019.6mb 84f 82f
2:50pm 2.5ft 9s 6s 4 7 mph 1019.9mb 84f 82f
2:20pm  -   -   -  4
mph
1020.1mb 84f 81f
1:50pm 2.5ft 9s 6s 4
mph
1020.1mb 84f 81f
1:20pm  -   -   -  2 4 mph 1020.2mb 83f 81f
12:50pm 2.5ft 9s 6s 4
mph
1020.2mb 83f 80f
12:20pm  -   -   -  4
mph
1020.2mb 83f 80f
11:50am 3ft 9s 6s 4 7 mph 1020.2mb 82f 80f
11:20am  -   -   -  7
mph
1020.2mb 82f 80f
10:50am 3ft 8s 6s 9
mph
1020.2mb 82f 79f
10:20am  -   -   -  9 13 mph 1020mb 82f 80f
9:50am 3ft 9s 5s 7 11 mph 1019.7mb 82f 80f
9:20am  -   -   -  9
mph
1019.6mb 82f 81f
8:50am 3ft 8s 5s 7 9 mph 1019.6mb 82f 81f
8:20am  -   -   -  7 9 mph 1019.3mb 81f 80f
7:50am 3.5ft 9s 6s 9 11 mph 1019.1mb 81f 80f
7:20am  -   -   -  9 11 mph 1018.7mb 81f 80f
6:50am 3.5ft 9s 6s 11
mph
1018.4mb 81f 80f
6:20am  -   -   -  11 13 mph 1018mb 81f 80f
5:50am 4ft 8s 6s 11 13 mph 1017.6mb 81f 80f
5:20am  -   -   -  11 16 mph 1017.5mb 81f 80f
4:50am 4ft 10s 6s 11 13 mph 1017.5mb 81f 80f
4:20am  -   -   -  13 16 mph 1017.4mb 81f 80f
3:50am 4ft 9s 5s 13 16 mph 1017.4mb 81f 80f
3:20am  -   -   -  13 16 mph 1017.6mb 81f 81f
2:50am 4.5ft 9s 6s 13 16 mph 1017.4mb 81f 81f
2:20am  -   -   -  16 18 mph 1017.4mb 81f 81f
1:50am 4.5ft 9s 6s 13 18 mph 1017.4mb 81f 81f
1:20am  -   -   -  16 18 mph 1017.3mb 81f 81f
12:50am 4.5ft 9s 6s 13 18 mph 1017.2mb 81f 82f
12:20am  -   -   -  13 16 mph 1017.2mb 81f 82f
Thu 08/28 11:50pm 4ft 10s 6s 13 18 mph 1016.9mb 81f 82f
11:20pm  -   -   -  13 16 mph 1016.8mb 81f 82f
10:50pm 4.5ft 10s 6s 16 18 mph 1016.7mb 81f 82f
10:20pm  -   -   -  13 16 mph 1016.5mb 81f 82f
9:50pm 4.5ft 9s 6s 13 16 mph 1016.5mb 81f 82f
9:20pm  -   -   -  16 18 mph 1016.4mb 81f 82f
8:50pm 4.5ft 9s 6s 16 18 mph 1016.1mb 81f 82f
8:20pm  -   -   -  13 16 mph 1015.8mb 81f 82f
7:50pm 4ft 9s 5s 13 18 mph 1015.7mb 81f 82f
7:20pm  -   -   -  16 18 mph 1015.4mb 81f 82f
6:50pm 4.5ft 10s 6s 13 16 mph 1015.3mb 81f 82f
6:20pm  -   -   -  16 18 mph 1015.3mb 81f 82f
5:50pm 4ft 10s 6s 13 16 mph 1015.2mb 81f 82f
5:20pm  -   -   -  16 18 mph 1015.1mb 81f 82f
4:50pm 4ft 9s 5s 16 18 mph 1015.1mb 81f 82f
4:20pm  -   -   -  16 18 mph 1015.1mb 81f 82f
3:50pm 4ft 10s 6s 16 18 mph 1015.2mb 81f 82f
3:20pm  -   -   -  16 18 mph 1015.2mb 81f 82f
2:50pm 3.5ft 10s 6s 16 18 mph 1015.4mb 81f 82f
2:20pm  -   -   -  16
mph
1015.6mb 81f 81f
1:50pm 4ft 11s 6s 16 18 mph 1015.9mb 81f 81f
1:20pm  -   -   -  16 18 mph 1016.1mb 81f 80f
12:50pm 4ft 11s 6s 13 18 mph 1016.2mb 80f 80f
12:20pm  -   -   -  16 18 mph 1016.3mb 80f 80f
11:50am 3.5ft 11s 6s 13 16 mph 1016.5mb 80f 80f
11:20am  -   -   -  13 16 mph 1016.6mb 80f 80f
10:50am 3.5ft 11s 6s 13 16 mph 1016.5mb 80f 79f
10:20am  -   -   -  11 13 mph 1016.6mb 80f 79f
9:50am 3.5ft 11s 6s 13 16 mph 1016.5mb 80f 80f
9:20am  -   -   -  13 16 mph 1016.2mb 80f 80f
8:50am 4ft 11s 6s 13 16 mph 1016.2mb 80f 80f
8:20am  -   -   -  13 16 mph 1016.1mb 80f 79f
7:50am 4ft 9s 6s 13 16 mph 1015.9mb 80f 79f
7:20am  -   -   -  13 18 mph 1015.6mb 80f 79f
6:50am 3.5ft 11s 7s 13 16 mph 1015.3mb 80f 79f
6:20am  -   -   -  11 13 mph 1015.1mb 80f 79f
5:50am 4.5ft 8s 7s 11 13 mph 1015mb 80f 79f
5:20am  -   -   -  9 11 mph 1014.8mb 80f 79f
4:50am 4.5ft 11s 7s 9 11 mph 1014.7mb 80f 79f
4:20am  -   -   -  9 11 mph 1014.4mb 80f 79f
3:50am 4.5ft 10s 6s 9
mph
1014.3mb 80f 79f
3:20am  -   -   -  7
mph
1014.1mb 80f 80f
2:50am 4.5ft 8s 6s 7
mph
1014.2mb 80f 79f
2:20am  -   -   -  9 11 mph 1014.5mb 80f 80f
1:50am 5ft 8s 7s 9 11 mph 1014.6mb 80f 80f
1:20am  -   -   -  11
mph
1014.7mb 80f 80f
12:50am 5ft 8s 6s 13 16 mph 1014.7mb 80f 80f
12:20am  -   -   -  13 16 mph 1014.7mb 80f 80f
Wed 08/27 11:50pm 5.5ft 9s 6s 13 16 mph 1014.5mb 80f 80f
11:20pm  -   -   -  13 16 mph 1014.3mb 80f 80f
10:50pm 5ft 11s 7s 13 16 mph 1014.4mb 80f 80f
10:20pm  -   -   -  11 16 mph 1014.5mb 80f 80f
9:50pm 6ft 13s 7s 7 11 mph 1014.6mb 80f 80f
9:20pm  -   -   -  9 11 mph 1014.4mb 80f 81f
8:50pm 6ft 12s 7s 4 7 mph 1014.2mb 80f 80f
8:20pm  -   -   -  7
mph
1014mb 80f 80f
7:50pm 6ft 11s 7s 7 9 mph 1013.9mb 80f 80f
7:20pm  -   -   -  11
mph
1013.7mb 80f 80f
6:50pm 6ft 9s 6s 11 13 mph 1013.6mb 81f 80f
6:20pm  -   -   -  13 16 mph 1013.6mb 80f 80f
5:50pm 6.5ft 11s 7s 11 13 mph 1013.4mb 81f 82f
5:20pm  -   -   -  9 13 mph 1013.4mb 81f 82f
4:50pm 7ft 9s 7s 13
mph
1013.2mb 80f 81f
4:20pm  -   -   -  13 16 mph 1013.3mb 80f 81f
3:50pm 7ft 12s 6s 16 18 mph 1013.4mb 80f 81f
3:20pm  -   -   -  16 20 mph 1013.5mb 80f 81f
2:50pm 6.5ft 13s 6s 16 18 mph 1013.9mb 80f 80f
2:20pm  -   -   -  18 22 mph 1014mb 80f 80f
1:50pm 6.5ft 13s 6s 18 22 mph 1014.2mb 80f 79f
1:20pm  -   -   -  20 25 mph 1014.2mb 80f 79f
12:50pm 6.5ft 14s 6s 22 25 mph 1014.4mb 80f 78f
12:20pm  -   -   -  20 25 mph 1014.7mb 80f 78f
11:50am 6.5ft 14s 6s 22 27 mph 1014.8mb 80f 77f
11:20am  -   -   -  22 27 mph 1015.1mb 80f 77f
10:50am 6.5ft 8s 6s 22 27 mph 1015.1mb 80f 77f
10:20am  -   -   -  22 27 mph 1015mb 80f 76f
9:50am 6ft 13s 6s 22 27 mph 1014.6mb 80f 76f
9:20am  -   -   -  25 29 mph 1014.2mb 80f 76f
8:50am 6ft 13s 6s 25 29 mph 1014.2mb 80f 76f
8:20am  -   -   -  22 25 mph 1014.2mb 80f 77f
7:50am 6ft 11s 6s 22 27 mph 1014.2mb 80f 77f
7:20am  -   -   -  20 25 mph 1014.2mb 80f 77f
6:50am 6.5ft 13s 6s 22 27 mph 1014mb 80f 76f
6:20am  -   -   -  25 27 mph 1013.8mb 80f 76f
5:50am 7ft 8s 6s 22 27 mph 1013.8mb 80f 76f
5:20am  -   -   -  22 27 mph 1013.7mb 80f 76f
4:50am 7ft 12s 6s 25 27 mph 1013.6mb 80f 76f